Airport View

Enter AWOS ICAO identifier for current METAR.

ex. KFNL

KLAW 191253Z 16003KT 10SM CLR 16/11 A2988 RMK AO2 SLP111 T01610111

19 May 2019 13:28

Phone: 580-581-1351

Other Area AWOS: KFSI - KDUC - KFDR - KSPS

TAF KLAW 191123Z 1912/2012 36009KT P6SM FEW250 FM191600 05008KT P6SM SKC FM192300 09008KT P6SM SCT250 FM201100 09013KT P6SM BKN025